THA1123 VTBS-VTCC
Flight info
| Callsign | THA1123 |
|---|---|
| Flight time | 0h 56m |
| Altitude | 38000 |
| Route | OLVUK1J OLVUK Y26 MARNI MARNI2A |
| Aircraft | B772/H-SDE2E3FGHIJ5LORVWXY/LB1D1 |
Departure
| Time | 2026-05-04 00:17 |
|---|---|
| Airport | Suvarnabhumi Airport (VTBS) |
Arrival
| Time | 2026-05-04 01:13 |
|---|---|
| Airport | Chiang Mai International Airport (VTCC) |
| Time | Latitude | Longitude | Altitude | Speed | Heading |
|---|---|---|---|---|---|
| 2026-05-04 00:03 | 13.68637 | 100.75381 | 17 ft | 0 kts | 284° |
| 2026-05-04 00:08 | 13.68636 | 100.75388 | 18 ft | 2 kts | 283° |
| 2026-05-04 00:09 | 13.68632 | 100.75404 | 20 ft | 2 kts | 284° |
| 2026-05-04 00:09 | 13.68628 | 100.75420 | 19 ft | 2 kts | 283° |
| 2026-05-04 00:09 | 13.68625 | 100.75437 | 18 ft | 2 kts | 271° |
| 2026-05-04 00:09 | 13.68626 | 100.75454 | 18 ft | 2 kts | 257° |
| 2026-05-04 00:10 | 13.68632 | 100.75469 | 22 ft | 2 kts | 214° |
| 2026-05-04 00:10 | 13.68648 | 100.75475 | 20 ft | 2 kts | 195° |
| 2026-05-04 00:10 | 13.68664 | 100.75479 | 19 ft | 2 kts | 194° |
| 2026-05-04 00:10 | 13.68678 | 100.75482 | 21 ft | 1 kts | 194° |
| 2026-05-04 00:11 | 13.68679 | 100.75483 | 21 ft | 0 kts | 194° |
| 2026-05-04 00:11 | 13.68658 | 100.75478 | 19 ft | 5 kts | 194° |
| 2026-05-04 00:11 | 13.68616 | 100.75467 | 21 ft | 11 kts | 194° |
| 2026-05-04 00:12 | 13.68537 | 100.75450 | 17 ft | 12 kts | 175° |
| 2026-05-04 00:12 | 13.68491 | 100.75514 | 17 ft | 12 kts | 106° |
| 2026-05-04 00:12 | 13.68476 | 100.75596 | 18 ft | 12 kts | 85° |
| 2026-05-04 00:12 | 13.68536 | 100.75645 | 18 ft | 12 kts | 16° |
| 2026-05-04 00:13 | 13.68615 | 100.75666 | 18 ft | 12 kts | 14° |
| 2026-05-04 00:13 | 13.68694 | 100.75687 | 18 ft | 12 kts | 14° |
| 2026-05-04 00:13 | 13.68773 | 100.75708 | 18 ft | 12 kts | 14° |
| 2026-05-04 00:13 | 13.68852 | 100.75729 | 18 ft | 12 kts | 14° |
| 2026-05-04 00:14 | 13.68931 | 100.75749 | 18 ft | 12 kts | 14° |
| 2026-05-04 00:14 | 13.69011 | 100.75770 | 18 ft | 12 kts | 14° |
| 2026-05-04 00:14 | 13.69090 | 100.75791 | 18 ft | 12 kts | 14° |
| 2026-05-04 00:14 | 13.69169 | 100.75812 | 17 ft | 12 kts | 14° |
| 2026-05-04 00:15 | 13.69225 | 100.75862 | 17 ft | 12 kts | 81° |
| 2026-05-04 00:15 | 13.69211 | 100.75945 | 17 ft | 12 kts | 104° |
| 2026-05-04 00:15 | 13.69191 | 100.76026 | 17 ft | 12 kts | 106° |
| 2026-05-04 00:15 | 13.69129 | 100.76075 | 16 ft | 12 kts | 163° |
| 2026-05-04 00:16 | 13.69052 | 100.76073 | 17 ft | 6 kts | 194° |
| 2026-05-04 00:16 | 13.69044 | 100.76071 | 17 ft | 1 kts | 194° |
| 2026-05-04 00:16 | 13.68800 | 100.76007 | 20 ft | 84 kts | 194° |
| 2026-05-04 00:16 | 13.67910 | 100.75773 | 39 ft | 174 kts | 194° |
| 2026-05-04 00:17 | 13.66677 | 100.75441 | 992 ft | 184 kts | 194° |
| 2026-05-04 00:17 | 13.65475 | 100.75146 | 2419 ft | 178 kts | 188° |
| 2026-05-04 00:17 | 13.64170 | 100.75099 | 2845 ft | 202 kts | 180° |
| 2026-05-04 00:17 | 13.62655 | 100.75141 | 3071 ft | 234 kts | 179° |
| 2026-05-04 00:18 | 13.60922 | 100.75191 | 3424 ft | 259 kts | 179° |
| 2026-05-04 00:18 | 13.59151 | 100.75495 | 4003 ft | 268 kts | 157° |
| 2026-05-04 00:18 | 13.57464 | 100.76308 | 4678 ft | 271 kts | 161° |
| 2026-05-04 00:18 | 13.55617 | 100.76820 | 5456 ft | 276 kts | 166° |
| 2026-05-04 00:19 | 13.53737 | 100.77280 | 6374 ft | 279 kts | 165° |
| 2026-05-04 00:19 | 13.51845 | 100.77778 | 7184 ft | 281 kts | 164° |
| 2026-05-04 00:19 | 13.49946 | 100.78304 | 7992 ft | 285 kts | 163° |
| 2026-05-04 00:19 | 13.47998 | 100.78639 | 8640 ft | 289 kts | 182° |
| 2026-05-04 00:20 | 13.46029 | 100.78220 | 9213 ft | 292 kts | 198° |
| 2026-05-04 00:20 | 13.44258 | 100.77149 | 9846 ft | 301 kts | 224° |
| 2026-05-04 00:20 | 13.43095 | 100.75354 | 10466 ft | 311 kts | 249° |
| 2026-05-04 00:20 | 13.42819 | 100.73114 | 10783 ft | 334 kts | 278° |
| 2026-05-04 00:21 | 13.43373 | 100.70767 | 11343 ft | 343 kts | 286° |
| 2026-05-04 00:21 | 13.44036 | 100.68378 | 12198 ft | 350 kts | 285° |
| 2026-05-04 00:21 | 13.44680 | 100.65959 | 13293 ft | 352 kts | 285° |
| 2026-05-04 00:21 | 13.45303 | 100.63519 | 14259 ft | 356 kts | 284° |
| 2026-05-04 00:22 | 13.45995 | 100.61079 | 15087 ft | 357 kts | 293° |
| 2026-05-04 00:22 | 13.47411 | 100.58958 | 15849 ft | 366 kts | 317° |
| 2026-05-04 00:22 | 13.49555 | 100.57539 | 16788 ft | 371 kts | 338° |
| 2026-05-04 00:22 | 13.52078 | 100.56969 | 17733 ft | 373 kts | 358° |
| 2026-05-04 00:23 | 13.54692 | 100.57020 | 18440 ft | 381 kts | 2° |
| 2026-05-04 00:23 | 13.57378 | 100.57148 | 19168 ft | 388 kts | 2° |
| 2026-05-04 00:23 | 13.60093 | 100.57268 | 20039 ft | 391 kts | 2° |
| 2026-05-04 00:23 | 13.62792 | 100.57358 | 20934 ft | 394 kts | 1° |
| 2026-05-04 00:24 | 13.65540 | 100.57434 | 21771 ft | 398 kts | 0° |
| 2026-05-04 00:24 | 13.68332 | 100.57505 | 22565 ft | 404 kts | 0° |
| 2026-05-04 00:24 | 13.71161 | 100.57578 | 23373 ft | 409 kts | 0° |
| 2026-05-04 00:24 | 13.74032 | 100.57654 | 24060 ft | 414 kts | 0° |
| 2026-05-04 00:25 | 13.76919 | 100.57612 | 24641 ft | 416 kts | 351° |
| 2026-05-04 00:25 | 13.79698 | 100.56738 | 25142 ft | 422 kts | 330° |
| 2026-05-04 00:25 | 13.82190 | 100.55169 | 25757 ft | 422 kts | 326° |
| 2026-05-04 00:25 | 13.84677 | 100.53534 | 26401 ft | 428 kts | 326° |
| 2026-05-04 00:26 | 13.87179 | 100.51911 | 27078 ft | 432 kts | 326° |
| 2026-05-04 00:26 | 13.89777 | 100.50259 | 27770 ft | 436 kts | 327° |
| 2026-05-04 00:26 | 13.92350 | 100.48640 | 28405 ft | 440 kts | 327° |
| 2026-05-04 00:26 | 13.95033 | 100.47085 | 28989 ft | 447 kts | 334° |
| 2026-05-04 00:27 | 13.97987 | 100.45998 | 29537 ft | 454 kts | 341° |
| 2026-05-04 00:27 | 14.01017 | 100.45103 | 30116 ft | 458 kts | 342° |
| 2026-05-04 00:27 | 14.04098 | 100.44228 | 30652 ft | 460 kts | 342° |
| 2026-05-04 00:27 | 14.07191 | 100.43323 | 31173 ft | 462 kts | 341° |
| 2026-05-04 00:28 | 14.10285 | 100.42379 | 31651 ft | 464 kts | 341° |
| 2026-05-04 00:28 | 14.13390 | 100.41403 | 32095 ft | 467 kts | 340° |
| 2026-05-04 00:28 | 14.16472 | 100.40420 | 32516 ft | 470 kts | 340° |
| 2026-05-04 00:28 | 14.19601 | 100.39420 | 32939 ft | 473 kts | 340° |
| 2026-05-04 00:29 | 14.22765 | 100.38413 | 33364 ft | 476 kts | 340° |
| 2026-05-04 00:29 | 14.25942 | 100.37404 | 33778 ft | 479 kts | 340° |
| 2026-05-04 00:29 | 14.29129 | 100.36392 | 34125 ft | 481 kts | 340° |
| 2026-05-04 00:29 | 14.32339 | 100.35373 | 34536 ft | 480 kts | 340° |
| 2026-05-04 00:30 | 14.35528 | 100.34360 | 35069 ft | 477 kts | 340° |
| 2026-05-04 00:30 | 14.38687 | 100.33356 | 35657 ft | 473 kts | 340° |
| 2026-05-04 00:30 | 14.41818 | 100.32360 | 36218 ft | 470 kts | 340° |
| 2026-05-04 00:30 | 14.44941 | 100.31366 | 36733 ft | 468 kts | 340° |
| 2026-05-04 00:31 | 14.48007 | 100.30273 | 37208 ft | 465 kts | 335° |
| 2026-05-04 00:31 | 14.50930 | 100.28871 | 37688 ft | 462 kts | 330° |
| 2026-05-04 00:31 | 14.53783 | 100.27336 | 37922 ft | 465 kts | 330° |
| 2026-05-04 00:31 | 14.56659 | 100.25773 | 37903 ft | 468 kts | 330° |
| 2026-05-04 00:32 | 14.62540 | 100.22728 | 37915 ft | 484 kts | 332° |
| 2026-05-04 00:32 | 14.68790 | 100.19845 | 37909 ft | 500 kts | 338° |
| 2026-05-04 00:33 | 14.78933 | 100.16649 | 37907 ft | 511 kts | 341° |
| 2026-05-04 00:34 | 14.85748 | 100.14473 | 37902 ft | 512 kts | 340° |
| 2026-05-04 00:34 | 14.92483 | 100.12220 | 37897 ft | 512 kts | 339° |
| 2026-05-04 00:35 | 14.99247 | 100.09952 | 37897 ft | 510 kts | 339° |
| 2026-05-04 00:35 | 15.05957 | 100.07716 | 37899 ft | 507 kts | 339° |
| 2026-05-04 00:36 | 15.12675 | 100.05481 | 37899 ft | 506 kts | 339° |
| 2026-05-04 00:36 | 15.19365 | 100.03253 | 37897 ft | 505 kts | 339° |
| 2026-05-04 00:37 | 15.26042 | 100.01027 | 37895 ft | 504 kts | 339° |
| 2026-05-04 00:37 | 15.31413 | 99.99234 | 37895 ft | 504 kts | 339° |
| 2026-05-04 00:38 | 15.37603 | 99.97050 | 37841 ft | 504 kts | 339° |
| 2026-05-04 00:38 | 15.45367 | 99.94491 | 37899 ft | 504 kts | 340° |
| 2026-05-04 00:39 | 15.50982 | 99.92672 | 37886 ft | 505 kts | 340° |
| 2026-05-04 00:39 | 15.57684 | 99.90458 | 37902 ft | 505 kts | 339° |
| 2026-05-04 00:40 | 15.64381 | 99.88216 | 37898 ft | 506 kts | 339° |
| 2026-05-04 00:40 | 15.71044 | 99.85979 | 37895 ft | 506 kts | 339° |
| 2026-05-04 00:41 | 15.77750 | 99.83729 | 37903 ft | 507 kts | 339° |
| 2026-05-04 00:41 | 15.84476 | 99.81472 | 37892 ft | 507 kts | 339° |
| 2026-05-04 00:42 | 15.91198 | 99.79215 | 37894 ft | 508 kts | 339° |
| 2026-05-04 00:42 | 15.97947 | 99.76949 | 37892 ft | 508 kts | 339° |
| 2026-05-04 00:43 | 16.04636 | 99.74757 | 37896 ft | 509 kts | 340° |
| 2026-05-04 00:43 | 16.11405 | 99.72571 | 37908 ft | 509 kts | 340° |
| 2026-05-04 00:44 | 16.18169 | 99.70379 | 37899 ft | 509 kts | 340° |
| 2026-05-04 00:44 | 16.24922 | 99.68180 | 37897 ft | 508 kts | 340° |
| 2026-05-04 00:45 | 16.31675 | 99.65977 | 37898 ft | 508 kts | 340° |
| 2026-05-04 00:45 | 16.38389 | 99.63784 | 37903 ft | 508 kts | 340° |
| 2026-05-04 00:46 | 16.45171 | 99.61569 | 37898 ft | 508 kts | 340° |
| 2026-05-04 00:46 | 16.51727 | 99.59429 | 37886 ft | 480 kts | 340° |
| 2026-05-04 00:47 | 16.58049 | 99.57363 | 37479 ft | 484 kts | 340° |
| 2026-05-04 00:47 | 16.61278 | 99.56303 | 37033 ft | 485 kts | 340° |
| 2026-05-04 00:47 | 16.64479 | 99.55254 | 36582 ft | 478 kts | 340° |
| 2026-05-04 00:47 | 16.67629 | 99.54223 | 36132 ft | 473 kts | 340° |
| 2026-05-04 00:48 | 16.70761 | 99.53197 | 35691 ft | 468 kts | 340° |
| 2026-05-04 00:48 | 16.73851 | 99.52185 | 35232 ft | 464 kts | 340° |
| 2026-05-04 00:48 | 16.76923 | 99.51178 | 34764 ft | 461 kts | 340° |
| 2026-05-04 00:48 | 16.79968 | 99.50179 | 34280 ft | 458 kts | 340° |
| 2026-05-04 00:49 | 16.83005 | 99.49183 | 33809 ft | 456 kts | 340° |
| 2026-05-04 00:49 | 16.86024 | 99.48192 | 33275 ft | 453 kts | 340° |
| 2026-05-04 00:49 | 16.88981 | 99.47221 | 32798 ft | 449 kts | 340° |
| 2026-05-04 00:49 | 16.91943 | 99.46248 | 32329 ft | 446 kts | 340° |
| 2026-05-04 00:50 | 16.94898 | 99.45278 | 31868 ft | 443 kts | 340° |
| 2026-05-04 00:50 | 16.97826 | 99.44316 | 31416 ft | 439 kts | 340° |
| 2026-05-04 00:50 | 17.00708 | 99.43368 | 30969 ft | 436 kts | 340° |
| 2026-05-04 00:50 | 17.03601 | 99.42417 | 30519 ft | 434 kts | 340° |
| 2026-05-04 00:51 | 17.06473 | 99.41472 | 30064 ft | 431 kts | 340° |
| 2026-05-04 00:51 | 17.09332 | 99.40531 | 29539 ft | 428 kts | 340° |
| 2026-05-04 00:51 | 17.12170 | 99.39597 | 29044 ft | 424 kts | 340° |
| 2026-05-04 00:51 | 17.14969 | 99.38676 | 28551 ft | 420 kts | 340° |
| 2026-05-04 00:52 | 17.17749 | 99.37761 | 28077 ft | 416 kts | 340° |
| 2026-05-04 00:52 | 17.20487 | 99.36860 | 27627 ft | 412 kts | 340° |
| 2026-05-04 00:52 | 17.23214 | 99.35961 | 27148 ft | 408 kts | 340° |
| 2026-05-04 00:52 | 17.25918 | 99.35069 | 26699 ft | 405 kts | 340° |
| 2026-05-04 00:53 | 17.28597 | 99.34186 | 26245 ft | 402 kts | 340° |
| 2026-05-04 00:53 | 17.31261 | 99.33307 | 25798 ft | 399 kts | 340° |
| 2026-05-04 00:53 | 17.33865 | 99.32447 | 25356 ft | 397 kts | 339° |
| 2026-05-04 00:53 | 17.36494 | 99.31580 | 24906 ft | 395 kts | 339° |
| 2026-05-04 00:54 | 17.38837 | 99.30806 | 24511 ft | 393 kts | 339° |
| 2026-05-04 00:54 | 17.41438 | 99.29947 | 24079 ft | 391 kts | 339° |
| 2026-05-04 00:54 | 17.44026 | 99.29092 | 23632 ft | 390 kts | 339° |
| 2026-05-04 00:54 | 17.46614 | 99.28237 | 23139 ft | 388 kts | 339° |
| 2026-05-04 00:55 | 17.49181 | 99.27388 | 22671 ft | 385 kts | 339° |
| 2026-05-04 00:55 | 17.51731 | 99.26545 | 22217 ft | 383 kts | 339° |
| 2026-05-04 00:55 | 17.54258 | 99.25710 | 21790 ft | 380 kts | 339° |
| 2026-05-04 00:55 | 17.56775 | 99.24877 | 21352 ft | 377 kts | 339° |
| 2026-05-04 00:56 | 17.59273 | 99.24051 | 20923 ft | 374 kts | 339° |
| 2026-05-04 00:56 | 17.61746 | 99.23232 | 20498 ft | 372 kts | 339° |
| 2026-05-04 00:56 | 17.64173 | 99.22429 | 20081 ft | 369 kts | 339° |
| 2026-05-04 00:56 | 17.66616 | 99.21620 | 19660 ft | 367 kts | 339° |
| 2026-05-04 00:57 | 17.69045 | 99.20814 | 19231 ft | 365 kts | 339° |
| 2026-05-04 00:57 | 17.71471 | 99.20010 | 18793 ft | 364 kts | 339° |
| 2026-05-04 00:57 | 17.73881 | 99.19211 | 18366 ft | 362 kts | 339° |
| 2026-05-04 00:57 | 17.76276 | 99.18416 | 17898 ft | 361 kts | 339° |
| 2026-05-04 00:58 | 17.78661 | 99.17625 | 17444 ft | 358 kts | 339° |
| 2026-05-04 00:58 | 17.81033 | 99.16838 | 17002 ft | 356 kts | 339° |
| 2026-05-04 00:58 | 17.83391 | 99.16055 | 16573 ft | 354 kts | 339° |
| 2026-05-04 00:58 | 17.85732 | 99.15278 | 16145 ft | 351 kts | 339° |
| 2026-05-04 00:59 | 17.88028 | 99.14514 | 15741 ft | 349 kts | 339° |
| 2026-05-04 00:59 | 17.90295 | 99.13764 | 15310 ft | 333 kts | 339° |
| 2026-05-04 00:59 | 17.92464 | 99.13047 | 14894 ft | 319 kts | 339° |
| 2026-05-04 00:59 | 17.94541 | 99.12360 | 14517 ft | 306 kts | 339° |
| 2026-05-04 01:00 | 17.96532 | 99.11698 | 14153 ft | 295 kts | 339° |
| 2026-05-04 01:00 | 17.98478 | 99.11051 | 13802 ft | 292 kts | 339° |
| 2026-05-04 01:00 | 18.00445 | 99.10393 | 13433 ft | 309 kts | 339° |
| 2026-05-04 01:00 | 18.02529 | 99.09693 | 13016 ft | 317 kts | 339° |
| 2026-05-04 01:01 | 18.04629 | 99.08993 | 12618 ft | 316 kts | 340° |
| 2026-05-04 01:01 | 18.06730 | 99.08294 | 12214 ft | 315 kts | 340° |
| 2026-05-04 01:01 | 18.08793 | 99.07608 | 11821 ft | 315 kts | 340° |
| 2026-05-04 01:01 | 18.10882 | 99.06913 | 11425 ft | 315 kts | 340° |
| 2026-05-04 01:02 | 18.12971 | 99.06218 | 11028 ft | 314 kts | 340° |
| 2026-05-04 01:02 | 18.15049 | 99.05526 | 10656 ft | 313 kts | 340° |
| 2026-05-04 01:02 | 18.17129 | 99.04833 | 10268 ft | 312 kts | 340° |
| 2026-05-04 01:02 | 18.19173 | 99.04153 | 10114 ft | 304 kts | 340° |
| 2026-05-04 01:03 | 18.21174 | 99.03486 | 9785 ft | 300 kts | 341° |
| 2026-05-04 01:03 | 18.23156 | 99.02823 | 9431 ft | 296 kts | 340° |
| 2026-05-04 01:03 | 18.25107 | 99.02177 | 9048 ft | 292 kts | 340° |
| 2026-05-04 01:03 | 18.27027 | 99.01531 | 8734 ft | 289 kts | 341° |
| 2026-05-04 01:04 | 18.28917 | 99.00900 | 8388 ft | 289 kts | 341° |
| 2026-05-04 01:04 | 18.30832 | 99.00261 | 8034 ft | 285 kts | 341° |
| 2026-05-04 01:04 | 18.32610 | 98.99668 | 7713 ft | 281 kts | 341° |
| 2026-05-04 01:04 | 18.34473 | 98.99047 | 7381 ft | 280 kts | 341° |
| 2026-05-04 01:05 | 18.36331 | 98.98425 | 7073 ft | 279 kts | 342° |
| 2026-05-04 01:05 | 18.38153 | 98.97816 | 6931 ft | 270 kts | 342° |
| 2026-05-04 01:05 | 18.39918 | 98.97227 | 6806 ft | 262 kts | 342° |
| 2026-05-04 01:05 | 18.41628 | 98.96656 | 6688 ft | 253 kts | 342° |
| 2026-05-04 01:06 | 18.43293 | 98.96164 | 6497 ft | 245 kts | 352° |
| 2026-05-04 01:06 | 18.44987 | 98.96080 | 6263 ft | 243 kts | 0° |
| 2026-05-04 01:06 | 18.46669 | 98.96135 | 5995 ft | 242 kts | 2° |
| 2026-05-04 01:06 | 18.48350 | 98.96193 | 5733 ft | 241 kts | 1° |
| 2026-05-04 01:07 | 18.50023 | 98.96215 | 5470 ft | 241 kts | 0° |
| 2026-05-04 01:07 | 18.51696 | 98.96224 | 5211 ft | 240 kts | 0° |
| 2026-05-04 01:07 | 18.53364 | 98.96229 | 4952 ft | 240 kts | 0° |
| 2026-05-04 01:07 | 18.55013 | 98.96233 | 4694 ft | 240 kts | 0° |
| 2026-05-04 01:08 | 18.56677 | 98.96238 | 4438 ft | 238 kts | 0° |
| 2026-05-04 01:08 | 18.58311 | 98.96241 | 4167 ft | 230 kts | 0° |
| 2026-05-04 01:08 | 18.59856 | 98.96244 | 3902 ft | 213 kts | 0° |
| 2026-05-04 01:08 | 18.61289 | 98.96249 | 3651 ft | 198 kts | 0° |
| 2026-05-04 01:09 | 18.62624 | 98.96252 | 3385 ft | 185 kts | 0° |
| 2026-05-04 01:09 | 18.63844 | 98.96255 | 3162 ft | 164 kts | 0° |
| 2026-05-04 01:09 | 18.64916 | 98.96258 | 2980 ft | 144 kts | 0° |
| 2026-05-04 01:09 | 18.65887 | 98.96261 | 2793 ft | 138 kts | 0° |
| 2026-05-04 01:10 | 18.66854 | 98.96263 | 2633 ft | 139 kts | 0° |
| 2026-05-04 01:10 | 18.67819 | 98.96266 | 2452 ft | 138 kts | 0° |
| 2026-05-04 01:10 | 18.68783 | 98.96268 | 2281 ft | 138 kts | 0° |
| 2026-05-04 01:10 | 18.69726 | 98.96271 | 2109 ft | 137 kts | 0° |
| 2026-05-04 01:11 | 18.70684 | 98.96274 | 1928 ft | 137 kts | 0° |
| 2026-05-04 01:11 | 18.71628 | 98.96273 | 1768 ft | 135 kts | 0° |
| 2026-05-04 01:11 | 18.72567 | 98.96278 | 1596 ft | 134 kts | 1° |
| 2026-05-04 01:11 | 18.73495 | 98.96277 | 1415 ft | 131 kts | 1° |
| 2026-05-04 01:12 | 18.74404 | 98.96289 | 1242 ft | 131 kts | 359° |
| 2026-05-04 01:12 | 18.75298 | 98.96286 | 1079 ft | 129 kts | 359° |
| 2026-05-04 01:12 | 18.76160 | 98.96285 | 1029 ft | 110 kts | 1° |
| 2026-05-04 01:12 | 18.76744 | 98.96290 | 1033 ft | 58 kts | 0° |
| 2026-05-04 01:13 | 18.77152 | 98.96291 | 1038 ft | 52 kts | 0° |
| 2026-05-04 01:13 | 18.77423 | 98.96301 | 1041 ft | 27 kts | 7° |
| 2026-05-04 01:13 | 18.77597 | 98.96377 | 1043 ft | 27 kts | 29° |
| 2026-05-04 01:13 | 18.77698 | 98.96455 | 1044 ft | 13 kts | 63° |
| 2026-05-04 01:14 | 18.77652 | 98.96517 | 1043 ft | 13 kts | 175° |